Terminal Aerodrome Forecast
Issued by NWS Kansas City/Pleasant Hill, MO

Home | Current Version | Previous Version | Text Only | Print | Product List | Glossary On
Versions: 1 2 3 4 5 6 7 8 9 10 11 12 13 14 15 16 17
000
FTUS43 KEAX 030800 AAA
TAFMCI
TAF AMD
KMCI 030854Z 0309/0406 19012KT P6SM OVC120
      TEMPO 0310/0313 -SHRA OVC070
     FM031400 19017G25KT P6SM SCT090
     FM040100 20010KT P6SM SCT150=

USA.gov is the U.S. government's official web portal to all federal, state and local government web resources and services.